sensor_id;sensor_type;location;lat;lon;timestamp;P1;durP1;ratioP1;P2;durP2;ratioP2
14686;SDS011;7431;49.440;11.084;2023-04-25T00:00:41;6.47;;;5.43;;
14686;SDS011;7431;49.440;11.084;2023-04-25T00:03:07;5.60;;;4.70;;
14686;SDS011;7431;49.440;11.084;2023-04-25T00:05:33;5.07;;;4.57;;
14686;SDS011;7431;49.440;11.084;2023-04-25T00:08:02;4.60;;;4.20;;
14686;SDS011;7431;49.440;11.084;2023-04-25T00:10:28;5.63;;;5.10;;
14686;SDS011;7431;49.440;11.084;2023-04-25T00:12:54;4.73;;;4.23;;
14686;SDS011;7431;49.440;11.084;2023-04-25T00:15:23;5.07;;;4.67;;
14686;SDS011;7431;49.440;11.084;2023-04-25T00:17:49;7.90;;;5.63;;
14686;SDS011;7431;49.440;11.084;2023-04-25T00:20:17;4.77;;;4.33;;
14686;SDS011;7431;49.440;11.084;2023-04-25T00:22:43;7.53;;;5.67;;
14686;SDS011;7431;49.440;11.084;2023-04-25T00:25:10;6.83;;;5.53;;
14686;SDS011;7431;49.440;11.084;2023-04-25T00:27:36;5.37;;;4.87;;
14686;SDS011;7431;49.440;11.084;2023-04-25T00:30:04;7.47;;;6.50;;
14686;SDS011;7431;49.440;11.084;2023-04-25T00:32:30;4.80;;;4.40;;
14686;SDS011;7431;49.440;11.084;2023-04-25T00:34:56;5.20;;;4.70;;
14686;SDS011;7431;49.440;11.084;2023-04-25T00:37:23;4.60;;;4.20;;
14686;SDS011;7431;49.440;11.084;2023-04-25T00:39:49;6.03;;;5.13;;
14686;SDS011;7431;49.440;11.084;2023-04-25T00:42:15;6.23;;;4.53;;
14686;SDS011;7431;49.440;11.084;2023-04-25T00:44:41;4.80;;;4.27;;
14686;SDS011;7431;49.440;11.084;2023-04-25T00:47:07;4.70;;;4.10;;
14686;SDS011;7431;49.440;11.084;2023-04-25T00:49:34;4.70;;;4.00;;
14686;SDS011;7431;49.440;11.084;2023-04-25T00:51:59;4.33;;;3.93;;
14686;SDS011;7431;49.440;11.084;2023-04-25T00:54:26;4.40;;;4.00;;
14686;SDS011;7431;49.440;11.084;2023-04-25T00:56:52;4.70;;;4.23;;
14686;SDS011;7431;49.440;11.084;2023-04-25T00:59:18;4.53;;;3.70;;
14686;SDS011;7431;49.440;11.084;2023-04-25T01:01:45;4.60;;;4.20;;
14686;SDS011;7431;49.440;11.084;2023-04-25T01:04:11;4.43;;;4.03;;
14686;SDS011;7431;49.440;11.084;2023-04-25T01:06:37;4.50;;;4.10;;
14686;SDS011;7431;49.440;11.084;2023-04-25T01:09:03;4.43;;;4.03;;
14686;SDS011;7431;49.440;11.084;2023-04-25T01:11:30;5.50;;;4.40;;
14686;SDS011;7431;49.440;11.084;2023-04-25T01:13:56;4.40;;;4.00;;
14686;SDS011;7431;49.440;11.084;2023-04-25T01:16:22;3.80;;;3.50;;
14686;SDS011;7431;49.440;11.084;2023-04-25T01:18:49;4.00;;;3.60;;
14686;SDS011;7431;49.440;11.084;2023-04-25T01:21:16;4.53;;;3.50;;
14686;SDS011;7431;49.440;11.084;2023-04-25T01:23:42;5.07;;;4.00;;
14686;SDS011;7431;49.440;11.084;2023-04-25T01:26:09;3.80;;;3.50;;
14686;SDS011;7431;49.440;11.084;2023-04-25T01:28:35;4.53;;;4.03;;
14686;SDS011;7431;49.440;11.084;2023-04-25T01:31:01;5.63;;;4.27;;
14686;SDS011;7431;49.440;11.084;2023-04-25T01:33:29;5.00;;;4.27;;
14686;SDS011;7431;49.440;11.084;2023-04-25T01:35:55;4.53;;;4.13;;
14686;SDS011;7431;49.440;11.084;2023-04-25T01:38:21;5.13;;;4.00;;
14686;SDS011;7431;49.440;11.084;2023-04-25T01:40:47;6.27;;;3.87;;
14686;SDS011;7431;49.440;11.084;2023-04-25T01:43:14;5.00;;;4.50;;
14686;SDS011;7431;49.440;11.084;2023-04-25T01:45:45;5.40;;;4.57;;
14686;SDS011;7431;49.440;11.084;2023-04-25T01:48:12;4.97;;;4.47;;
14686;SDS011;7431;49.440;11.084;2023-04-25T01:50:42;4.83;;;4.43;;
14686;SDS011;7431;49.440;11.084;2023-04-25T01:53:09;4.37;;;3.93;;
14686;SDS011;7431;49.440;11.084;2023-04-25T01:55:36;4.20;;;3.70;;
14686;SDS011;7431;49.440;11.084;2023-04-25T01:58:02;4.57;;;3.80;;
14686;SDS011;7431;49.440;11.084;2023-04-25T02:00:28;4.47;;;4.07;;
14686;SDS011;7431;49.440;11.084;2023-04-25T02:02:57;4.73;;;4.30;;
14686;SDS011;7431;49.440;11.084;2023-04-25T02:05:23;5.10;;;4.00;;
14686;SDS011;7431;49.440;11.084;2023-04-25T02:07:49;5.47;;;4.13;;
14686;SDS011;7431;49.440;11.084;2023-04-25T02:10:15;5.13;;;4.13;;
14686;SDS011;7431;49.440;11.084;2023-04-25T02:12:41;4.40;;;4.00;;
14686;SDS011;7431;49.440;11.084;2023-04-25T02:15:07;5.40;;;4.40;;
14686;SDS011;7431;49.440;11.084;2023-04-25T02:17:33;4.80;;;4.40;;
14686;SDS011;7431;49.440;11.084;2023-04-25T02:19:59;4.10;;;3.80;;
14686;SDS011;7431;49.440;11.084;2023-04-25T02:22:25;5.03;;;4.20;;
14686;SDS011;7431;49.440;11.084;2023-04-25T02:24:52;4.27;;;3.87;;
14686;SDS011;7431;49.440;11.084;2023-04-25T02:27:18;4.37;;;3.97;;
14686;SDS011;7431;49.440;11.084;2023-04-25T02:29:44;5.27;;;4.00;;
14686;SDS011;7431;49.440;11.084;2023-04-25T02:32:10;4.57;;;4.17;;
14686;SDS011;7431;49.440;11.084;2023-04-25T02:34:36;5.30;;;4.70;;
14686;SDS011;7431;49.440;11.084;2023-04-25T02:37:02;5.70;;;4.50;;
14686;SDS011;7431;49.440;11.084;2023-04-25T02:39:28;4.90;;;4.50;;
14686;SDS011;7431;49.440;11.084;2023-04-25T02:41:54;5.07;;;4.50;;
14686;SDS011;7431;49.440;11.084;2023-04-25T02:44:20;5.20;;;4.80;;
14686;SDS011;7431;49.440;11.084;2023-04-25T02:46:46;5.63;;;4.90;;
14686;SDS011;7431;49.440;11.084;2023-04-25T02:49:12;5.87;;;5.37;;
14686;SDS011;7431;49.440;11.084;2023-04-25T02:51:38;5.77;;;5.17;;
14686;SDS011;7431;49.440;11.084;2023-04-25T02:54:04;5.83;;;5.27;;
14686;SDS011;7431;49.440;11.084;2023-04-25T02:56:31;6.50;;;5.90;;
14686;SDS011;7431;49.440;11.084;2023-04-25T02:58:57;6.00;;;5.40;;
14686;SDS011;7431;49.440;11.084;2023-04-25T03:01:23;5.73;;;5.23;;
14686;SDS011;7431;49.440;11.084;2023-04-25T03:03:49;5.57;;;5.10;;
14686;SDS011;7431;49.440;11.084;2023-04-25T03:06:15;6.80;;;6.03;;
14686;SDS011;7431;49.440;11.084;2023-04-25T03:08:41;6.80;;;6.20;;
14686;SDS011;7431;49.440;11.084;2023-04-25T03:11:07;6.47;;;5.87;;
14686;SDS011;7431;49.440;11.084;2023-04-25T03:13:33;6.57;;;5.97;;
14686;SDS011;7431;49.440;11.084;2023-04-25T03:15:59;6.37;;;5.77;;
14686;SDS011;7431;49.440;11.084;2023-04-25T03:18:25;7.77;;;6.43;;
14686;SDS011;7431;49.440;11.084;2023-04-25T03:20:51;6.83;;;6.10;;
14686;SDS011;7431;49.440;11.084;2023-04-25T03:23:17;6.57;;;5.90;;
14686;SDS011;7431;49.440;11.084;2023-04-25T03:25:43;6.30;;;5.70;;
14686;SDS011;7431;49.440;11.084;2023-04-25T03:28:09;7.23;;;6.33;;
14686;SDS011;7431;49.440;11.084;2023-04-25T03:30:35;6.23;;;5.63;;
14686;SDS011;7431;49.440;11.084;2023-04-25T03:33:01;7.10;;;6.43;;
14686;SDS011;7431;49.440;11.084;2023-04-25T03:35:27;7.57;;;6.87;;
14686;SDS011;7431;49.440;11.084;2023-04-25T03:37:53;7.70;;;6.90;;
14686;SDS011;7431;49.440;11.084;2023-04-25T03:40:19;7.80;;;7.00;;
14686;SDS011;7431;49.440;11.084;2023-04-25T03:42:45;8.63;;;7.50;;
14686;SDS011;7431;49.440;11.084;2023-04-25T03:45:11;8.17;;;7.37;;
14686;SDS011;7431;49.440;11.084;2023-04-25T03:47:37;8.43;;;7.63;;
14686;SDS011;7431;49.440;11.084;2023-04-25T03:50:03;7.83;;;7.03;;
14686;SDS011;7431;49.440;11.084;2023-04-25T03:52:29;8.27;;;7.47;;
14686;SDS011;7431;49.440;11.084;2023-04-25T03:54:55;8.13;;;7.33;;
14686;SDS011;7431;49.440;11.084;2023-04-25T03:57:21;8.90;;;7.47;;
14686;SDS011;7431;49.440;11.084;2023-04-25T03:59:47;7.83;;;7.00;;
14686;SDS011;7431;49.440;11.084;2023-04-25T04:02:13;8.70;;;7.90;;
14686;SDS011;7431;49.440;11.084;2023-04-25T04:04:39;7.80;;;7.00;;
14686;SDS011;7431;49.440;11.084;2023-04-25T04:07:05;9.80;;;6.87;;
14686;SDS011;7431;49.440;11.084;2023-04-25T04:09:31;7.50;;;6.47;;
14686;SDS011;7431;49.440;11.084;2023-04-25T04:11:57;7.60;;;6.37;;
14686;SDS011;7431;49.440;11.084;2023-04-25T04:14:23;7.03;;;6.40;;
14686;SDS011;7431;49.440;11.084;2023-04-25T04:16:50;7.00;;;6.30;;
14686;SDS011;7431;49.440;11.084;2023-04-25T04:19:17;6.83;;;6.13;;
14686;SDS011;7431;49.440;11.084;2023-04-25T04:21:43;7.43;;;6.63;;
14686;SDS011;7431;49.440;11.084;2023-04-25T04:24:09;7.77;;;6.50;;
14686;SDS011;7431;49.440;11.084;2023-04-25T04:26:38;6.67;;;5.97;;
14686;SDS011;7431;49.440;11.084;2023-04-25T04:29:10;6.90;;;6.20;;
14686;SDS011;7431;49.440;11.084;2023-04-25T04:31:36;7.03;;;6.33;;
14686;SDS011;7431;49.440;11.084;2023-04-25T04:34:02;9.13;;;7.30;;
14686;SDS011;7431;49.440;11.084;2023-04-25T04:36:28;8.63;;;7.10;;
14686;SDS011;7431;49.440;11.084;2023-04-25T04:38:54;8.07;;;7.27;;
14686;SDS011;7431;49.440;11.084;2023-04-25T04:41:21;8.13;;;7.33;;
14686;SDS011;7431;49.440;11.084;2023-04-25T04:43:47;7.37;;;6.67;;
14686;SDS011;7431;49.440;11.084;2023-04-25T04:46:13;7.67;;;6.30;;
14686;SDS011;7431;49.440;11.084;2023-04-25T04:48:39;7.93;;;7.13;;
14686;SDS011;7431;49.440;11.084;2023-04-25T04:51:06;9.13;;;7.00;;
14686;SDS011;7431;49.440;11.084;2023-04-25T04:53:32;8.80;;;7.83;;
14686;SDS011;7431;49.440;11.084;2023-04-25T04:55:58;7.80;;;6.37;;
14686;SDS011;7431;49.440;11.084;2023-04-25T04:58:24;7.23;;;6.53;;
14686;SDS011;7431;49.440;11.084;2023-04-25T05:00:50;6.93;;;6.33;;
14686;SDS011;7431;49.440;11.084;2023-04-25T05:03:16;8.63;;;6.60;;
14686;SDS011;7431;49.440;11.084;2023-04-25T05:05:42;7.53;;;6.83;;
14686;SDS011;7431;49.440;11.084;2023-04-25T05:08:08;7.20;;;6.50;;
14686;SDS011;7431;49.440;11.084;2023-04-25T05:10:34;6.80;;;6.20;;
14686;SDS011;7431;49.440;11.084;2023-04-25T05:13:00;6.93;;;6.17;;
14686;SDS011;7431;49.440;11.084;2023-04-25T05:15:26;8.17;;;7.37;;
14686;SDS011;7431;49.440;11.084;2023-04-25T05:17:52;7.03;;;6.37;;
14686;SDS011;7431;49.440;11.084;2023-04-25T05:20:18;7.10;;;6.50;;
14686;SDS011;7431;49.440;11.084;2023-04-25T05:22:44;7.13;;;6.53;;
14686;SDS011;7431;49.440;11.084;2023-04-25T05:25:10;7.57;;;6.67;;
14686;SDS011;7431;49.440;11.084;2023-04-25T05:27:36;7.17;;;6.47;;
14686;SDS011;7431;49.440;11.084;2023-04-25T05:30:02;7.13;;;6.30;;
14686;SDS011;7431;49.440;11.084;2023-04-25T05:32:29;6.30;;;5.70;;
14686;SDS011;7431;49.440;11.084;2023-04-25T05:34:55;7.10;;;6.37;;
14686;SDS011;7431;49.440;11.084;2023-04-25T05:37:21;6.90;;;6.20;;
14686;SDS011;7431;49.440;11.084;2023-04-25T05:39:47;7.10;;;5.97;;
14686;SDS011;7431;49.440;11.084;2023-04-25T05:42:13;7.17;;;5.90;;
14686;SDS011;7431;49.440;11.084;2023-04-25T05:44:39;6.03;;;5.53;;
14686;SDS011;7431;49.440;11.084;2023-04-25T05:47:05;6.60;;;6.00;;
14686;SDS011;7431;49.440;11.084;2023-04-25T05:49:31;6.03;;;5.43;;
14686;SDS011;7431;49.440;11.084;2023-04-25T05:51:57;6.47;;;5.97;;
14686;SDS011;7431;49.440;11.084;2023-04-25T05:54:23;5.97;;;5.37;;
14686;SDS011;7431;49.440;11.084;2023-04-25T05:56:49;5.90;;;5.40;;
14686;SDS011;7431;49.440;11.084;2023-04-25T05:59:15;6.67;;;5.77;;
14686;SDS011;7431;49.440;11.084;2023-04-25T06:01:41;6.27;;;5.67;;
14686;SDS011;7431;49.440;11.084;2023-04-25T06:04:07;6.53;;;5.50;;
14686;SDS011;7431;49.440;11.084;2023-04-25T06:06:33;5.70;;;5.20;;
14686;SDS011;7431;49.440;11.084;2023-04-25T06:08:59;9.60;;;6.20;;
14686;SDS011;7431;49.440;11.084;2023-04-25T06:11:25;6.93;;;6.23;;
14686;SDS011;7431;49.440;11.084;2023-04-25T06:13:51;7.53;;;5.57;;
14686;SDS011;7431;49.440;11.084;2023-04-25T06:16:17;6.27;;;5.67;;
14686;SDS011;7431;49.440;11.084;2023-04-25T06:18:43;6.40;;;5.80;;
14686;SDS011;7431;49.440;11.084;2023-04-25T06:21:09;7.20;;;6.50;;
14686;SDS011;7431;49.440;11.084;2023-04-25T06:23:35;6.10;;;5.60;;
14686;SDS011;7431;49.440;11.084;2023-04-25T06:26:01;7.90;;;5.60;;
14686;SDS011;7431;49.440;11.084;2023-04-25T06:28:28;9.30;;;6.87;;
14686;SDS011;7431;49.440;11.084;2023-04-25T06:30:54;7.13;;;6.13;;
14686;SDS011;7431;49.440;11.084;2023-04-25T06:33:20;7.10;;;6.37;;
14686;SDS011;7431;49.440;11.084;2023-04-25T06:35:47;6.90;;;6.20;;
14686;SDS011;7431;49.440;11.084;2023-04-25T06:38:13;6.77;;;5.90;;
14686;SDS011;7431;49.440;11.084;2023-04-25T06:40:39;7.03;;;6.33;;
14686;SDS011;7431;49.440;11.084;2023-04-25T06:43:05;6.83;;;6.23;;
14686;SDS011;7431;49.440;11.084;2023-04-25T06:45:31;7.63;;;6.40;;
14686;SDS011;7431;49.440;11.084;2023-04-25T06:47:57;7.10;;;6.40;;
14686;SDS011;7431;49.440;11.084;2023-04-25T06:50:23;7.13;;;6.40;;
14686;SDS011;7431;49.440;11.084;2023-04-25T06:52:49;7.10;;;6.50;;
14686;SDS011;7431;49.440;11.084;2023-04-25T06:55:15;7.23;;;6.23;;
14686;SDS011;7431;49.440;11.084;2023-04-25T06:57:41;7.33;;;6.63;;
14686;SDS011;7431;49.440;11.084;2023-04-25T07:00:07;7.53;;;6.83;;
14686;SDS011;7431;49.440;11.084;2023-04-25T07:02:34;7.27;;;6.57;;
14686;SDS011;7431;49.440;11.084;2023-04-25T07:05:01;8.30;;;7.50;;
14686;SDS011;7431;49.440;11.084;2023-04-25T07:07:29;8.90;;;8.00;;
14686;SDS011;7431;49.440;11.084;2023-04-25T07:09:55;7.97;;;7.17;;
14686;SDS011;7431;49.440;11.084;2023-04-25T07:12:21;7.40;;;6.70;;
14686;SDS011;7431;49.440;11.084;2023-04-25T07:14:47;7.97;;;6.80;;
14686;SDS011;7431;49.440;11.084;2023-04-25T07:17:13;6.80;;;6.20;;
14686;SDS011;7431;49.440;11.084;2023-04-25T07:19:40;7.10;;;6.40;;
14686;SDS011;7431;49.440;11.084;2023-04-25T07:22:06;8.17;;;6.17;;
14686;SDS011;7431;49.440;11.084;2023-04-25T07:24:33;6.80;;;6.10;;
14686;SDS011;7431;49.440;11.084;2023-04-25T07:26:59;8.07;;;6.70;;
14686;SDS011;7431;49.440;11.084;2023-04-25T07:29:26;6.30;;;5.70;;
14686;SDS011;7431;49.440;11.084;2023-04-25T07:31:52;5.37;;;4.87;;
14686;SDS011;7431;49.440;11.084;2023-04-25T07:34:18;5.50;;;5.00;;
14686;SDS011;7431;49.440;11.084;2023-04-25T07:36:44;5.20;;;4.70;;
14686;SDS011;7431;49.440;11.084;2023-04-25T07:39:10;4.87;;;4.27;;
14686;SDS011;7431;49.440;11.084;2023-04-25T07:41:36;4.50;;;4.13;;
14686;SDS011;7431;49.440;11.084;2023-04-25T07:44:02;4.23;;;3.83;;
14686;SDS011;7431;49.440;11.084;2023-04-25T07:46:28;4.37;;;3.80;;
14686;SDS011;7431;49.440;11.084;2023-04-25T07:48:54;5.43;;;4.40;;
14686;SDS011;7431;49.440;11.084;2023-04-25T07:51:20;4.17;;;3.80;;
14686;SDS011;7431;49.440;11.084;2023-04-25T07:53:47;5.17;;;3.93;;
14686;SDS011;7431;49.440;11.084;2023-04-25T07:56:13;4.20;;;3.77;;
14686;SDS011;7431;49.440;11.084;2023-04-25T07:58:39;4.80;;;4.20;;
14686;SDS011;7431;49.440;11.084;2023-04-25T08:01:05;6.03;;;4.67;;
14686;SDS011;7431;49.440;11.084;2023-04-25T08:03:31;5.60;;;5.10;;
14686;SDS011;7431;49.440;11.084;2023-04-25T08:05:57;6.00;;;5.50;;
14686;SDS011;7431;49.440;11.084;2023-04-25T08:08:23;6.30;;;5.30;;
14686;SDS011;7431;49.440;11.084;2023-04-25T08:10:49;5.20;;;3.90;;
14686;SDS011;7431;49.440;11.084;2023-04-25T08:13:15;4.93;;;3.63;;
14686;SDS011;7431;49.440;11.084;2023-04-25T08:15:40;4.77;;;3.40;;
14686;SDS011;7431;49.440;11.084;2023-04-25T08:18:06;3.40;;;3.10;;
14686;SDS011;7431;49.440;11.084;2023-04-25T08:20:32;4.43;;;3.30;;
14686;SDS011;7431;49.440;11.084;2023-04-25T08:22:59;6.07;;;4.10;;
14686;SDS011;7431;49.440;11.084;2023-04-25T08:25:25;4.87;;;3.60;;
14686;SDS011;7431;49.440;11.084;2023-04-25T08:27:51;4.47;;;3.37;;
14686;SDS011;7431;49.440;11.084;2023-04-25T08:30:17;5.40;;;3.80;;
14686;SDS011;7431;49.440;11.084;2023-04-25T08:32:43;7.10;;;4.50;;
14686;SDS011;7431;49.440;11.084;2023-04-25T08:35:09;7.57;;;4.30;;
14686;SDS011;7431;49.440;11.084;2023-04-25T08:37:35;4.63;;;3.70;;
14686;SDS011;7431;49.440;11.084;2023-04-25T08:40:01;4.53;;;3.73;;
14686;SDS011;7431;49.440;11.084;2023-04-25T08:42:31;4.23;;;3.80;;
14686;SDS011;7431;49.440;11.084;2023-04-25T08:45:00;4.07;;;3.67;;
14686;SDS011;7431;49.440;11.084;2023-04-25T08:47:27;4.60;;;4.20;;
14686;SDS011;7431;49.440;11.084;2023-04-25T08:49:53;6.37;;;3.83;;
14686;SDS011;7431;49.440;11.084;2023-04-25T08:52:22;5.83;;;3.83;;
14686;SDS011;7431;49.440;11.084;2023-04-25T08:54:48;5.77;;;4.10;;
14686;SDS011;7431;49.440;11.084;2023-04-25T08:57:14;5.68;;;4.90;;
14686;SDS011;7431;49.440;11.084;2023-04-25T08:59:41;4.88;;;3.67;;
14686;SDS011;7431;49.440;11.084;2023-04-25T09:02:10;4.20;;;3.80;;
14686;SDS011;7431;49.440;11.084;2023-04-25T09:04:40;8.68;;;4.70;;
14686;SDS011;7431;49.440;11.084;2023-04-25T09:07:07;7.30;;;6.00;;
14686;SDS011;7431;49.440;11.084;2023-04-25T09:09:33;4.55;;;4.15;;
14686;SDS011;7431;49.440;11.084;2023-04-25T09:11:59;4.28;;;3.88;;
14686;SDS011;7431;49.440;11.084;2023-04-25T09:14:26;4.63;;;4.13;;
14686;SDS011;7431;49.440;11.084;2023-04-25T09:19:23;5.75;;;4.80;;
14686;SDS011;7431;49.440;11.084;2023-04-25T09:21:49;5.13;;;4.63;;
14686;SDS011;7431;49.440;11.084;2023-04-25T09:24:16;8.57;;;6.33;;
14686;SDS011;7431;49.440;11.084;2023-04-25T09:26:42;9.03;;;7.37;;
14686;SDS011;7431;49.440;11.084;2023-04-25T09:29:08;5.30;;;4.80;;
14686;SDS011;7431;49.440;11.084;2023-04-25T09:31:35;7.90;;;6.07;;
14686;SDS011;7431;49.440;11.084;2023-04-25T09:34:01;17.10;;;13.65;;
14686;SDS011;7431;49.440;11.084;2023-04-25T09:36:29;9.00;;;6.95;;
14686;SDS011;7431;49.440;11.084;2023-04-25T09:38:55;6.60;;;4.90;;
14686;SDS011;7431;49.440;11.084;2023-04-25T09:41:24;6.10;;;5.50;;
14686;SDS011;7431;49.440;11.084;2023-04-25T09:43:50;6.80;;;5.40;;
14686;SDS011;7431;49.440;11.084;2023-04-25T09:46:16;4.97;;;4.47;;
14686;SDS011;7431;49.440;11.084;2023-04-25T09:48:49;5.63;;;5.07;;
14686;SDS011;7431;49.440;11.084;2023-04-25T09:51:19;8.27;;;4.75;;
14686;SDS011;7431;49.440;11.084;2023-04-25T09:53:45;6.15;;;4.53;;
14686;SDS011;7431;49.440;11.084;2023-04-25T09:56:14;6.57;;;5.38;;
14686;SDS011;7431;49.440;11.084;2023-04-25T09:58:41;10.05;;;8.25;;
14686;SDS011;7431;49.440;11.084;2023-04-25T10:01:08;5.47;;;4.97;;
14686;SDS011;7431;49.440;11.084;2023-04-25T10:03:35;4.88;;;4.30;;
14686;SDS011;7431;49.440;11.084;2023-04-25T10:06:07;5.72;;;4.30;;
14686;SDS011;7431;49.440;11.084;2023-04-25T10:08:36;12.95;;;9.30;;
14686;SDS011;7431;49.440;11.084;2023-04-25T10:11:06;6.03;;;4.95;;
14686;SDS011;7431;49.440;11.084;2023-04-25T10:13:33;8.85;;;6.82;;
14686;SDS011;7431;49.440;11.084;2023-04-25T10:16:00;8.07;;;6.13;;
14686;SDS011;7431;49.440;11.084;2023-04-25T10:18:26;8.80;;;7.25;;
14686;SDS011;7431;49.440;11.084;2023-04-25T10:20:54;7.80;;;5.20;;
14686;SDS011;7431;49.440;11.084;2023-04-25T10:23:20;6.25;;;5.57;;
14686;SDS011;7431;49.440;11.084;2023-04-25T10:25:46;6.18;;;5.25;;
14686;SDS011;7431;49.440;11.084;2023-04-25T10:28:12;5.18;;;4.47;;
14686;SDS011;7431;49.440;11.084;2023-04-25T10:30:56;6.70;;;5.13;;
14686;SDS011;7431;49.440;11.084;2023-04-25T10:33:29;9.50;;;7.38;;
14686;SDS011;7431;49.440;11.084;2023-04-25T10:35:57;6.18;;;5.45;;
14686;SDS011;7431;49.440;11.084;2023-04-25T10:38:26;8.80;;;5.80;;
14686;SDS011;7431;49.440;11.084;2023-04-25T10:41:05;5.50;;;2.95;;
14686;SDS011;7431;49.440;11.084;2023-04-25T10:45:59;3.73;;;3.00;;
14686;SDS011;7431;49.440;11.084;2023-04-25T10:48:26;3.13;;;2.80;;
14686;SDS011;7431;49.440;11.084;2023-04-25T10:51:11;4.83;;;3.10;;
14686;SDS011;7431;49.440;11.084;2023-04-25T10:53:37;5.67;;;3.57;;
14686;SDS011;7431;49.440;11.084;2023-04-25T10:56:19;3.55;;;3.25;;
14686;SDS011;7431;49.440;11.084;2023-04-25T10:58:46;3.47;;;3.13;;
14686;SDS011;7431;49.440;11.084;2023-04-25T11:01:13;4.13;;;2.83;;
14686;SDS011;7431;49.440;11.084;2023-04-25T11:03:42;5.43;;;3.07;;
14686;SDS011;7431;49.440;11.084;2023-04-25T11:06:17;5.17;;;2.80;;
14686;SDS011;7431;49.440;11.084;2023-04-25T11:08:50;4.07;;;2.83;;
14686;SDS011;7431;49.440;11.084;2023-04-25T11:11:16;4.93;;;2.50;;
14686;SDS011;7431;49.440;11.084;2023-04-25T11:13:43;3.23;;;2.30;;
14686;SDS011;7431;49.440;11.084;2023-04-25T11:16:09;4.28;;;2.33;;
14686;SDS011;7431;49.440;11.084;2023-04-25T11:18:35;4.43;;;2.50;;
14686;SDS011;7431;49.440;11.084;2023-04-25T11:21:02;3.38;;;2.50;;
14686;SDS011;7431;49.440;11.084;2023-04-25T11:23:28;4.22;;;3.30;;
14686;SDS011;7431;49.440;11.084;2023-04-25T11:25:55;4.32;;;3.13;;
14686;SDS011;7431;49.440;11.084;2023-04-25T11:28:23;3.33;;;2.78;;
14686;SDS011;7431;49.440;11.084;2023-04-25T11:30:50;4.63;;;3.50;;
14686;SDS011;7431;49.440;11.084;2023-04-25T11:33:16;5.28;;;3.70;;
14686;SDS011;7431;49.440;11.084;2023-04-25T11:35:42;4.03;;;2.78;;
14686;SDS011;7431;49.440;11.084;2023-04-25T11:38:08;7.97;;;4.70;;
14686;SDS011;7431;49.440;11.084;2023-04-25T11:40:35;5.30;;;2.97;;
14686;SDS011;7431;49.440;11.084;2023-04-25T11:43:01;19.98;;;9.30;;
14686;SDS011;7431;49.440;11.084;2023-04-25T11:45:27;12.25;;;7.53;;
14686;SDS011;7431;49.440;11.084;2023-04-25T11:47:55;6.97;;;4.25;;
14686;SDS011;7431;49.440;11.084;2023-04-25T11:50:21;3.35;;;2.35;;
14686;SDS011;7431;49.440;11.084;2023-04-25T11:52:47;15.98;;;9.23;;
14686;SDS011;7431;49.440;11.084;2023-04-25T11:55:15;4.93;;;3.30;;
14686;SDS011;7431;49.440;11.084;2023-04-25T11:57:42;4.30;;;3.10;;
14686;SDS011;7431;49.440;11.084;2023-04-25T12:00:09;2.58;;;2.30;;
14686;SDS011;7431;49.440;11.084;2023-04-25T12:02:43;12.43;;;8.35;;
14686;SDS011;7431;49.440;11.084;2023-04-25T12:05:12;4.65;;;3.13;;
14686;SDS011;7431;49.440;11.084;2023-04-25T12:07:39;3.75;;;2.85;;
14686;SDS011;7431;49.440;11.084;2023-04-25T12:12:33;1.95;;;1.80;;
14686;SDS011;7431;49.440;11.084;2023-04-25T12:15:12;3.15;;;2.35;;
14686;SDS011;7431;49.440;11.084;2023-04-25T12:17:47;3.22;;;1.70;;
14686;SDS011;7431;49.440;11.084;2023-04-25T12:20:17;2.93;;;1.70;;
14686;SDS011;7431;49.440;11.084;2023-04-25T12:22:45;2.70;;;1.92;;
14686;SDS011;7431;49.440;11.084;2023-04-25T12:25:12;1.90;;;1.80;;
14686;SDS011;7431;49.440;11.084;2023-04-25T12:27:38;2.90;;;2.10;;
14686;SDS011;7431;49.440;11.084;2023-04-25T12:30:08;2.58;;;1.90;;
14686;SDS011;7431;49.440;11.084;2023-04-25T12:32:38;2.60;;;1.97;;
14686;SDS011;7431;49.440;11.084;2023-04-25T12:35:05;3.40;;;2.00;;
14686;SDS011;7431;49.440;11.084;2023-04-25T12:37:31;2.80;;;2.33;;
14686;SDS011;7431;49.440;11.084;2023-04-25T12:39:57;2.40;;;2.00;;
14686;SDS011;7431;49.440;11.084;2023-04-25T12:42:23;3.03;;;2.30;;
14686;SDS011;7431;49.440;11.084;2023-04-25T12:44:49;2.78;;;1.90;;
14686;SDS011;7431;49.440;11.084;2023-04-25T12:47:15;3.07;;;1.77;;
14686;SDS011;7431;49.440;11.084;2023-04-25T12:49:41;2.70;;;2.03;;
14686;SDS011;7431;49.440;11.084;2023-04-25T12:52:07;3.40;;;2.30;;
14686;SDS011;7431;49.440;11.084;2023-04-25T12:54:33;4.35;;;2.97;;
14686;SDS011;7431;49.440;11.084;2023-04-25T12:56:59;2.28;;;2.08;;
14686;SDS011;7431;49.440;11.084;2023-04-25T12:59:26;2.22;;;2.00;;
14686;SDS011;7431;49.440;11.084;2023-04-25T13:01:52;2.53;;;2.10;;
14686;SDS011;7431;49.440;11.084;2023-04-25T13:04:18;2.47;;;1.98;;
14686;SDS011;7431;49.440;11.084;2023-04-25T13:06:45;3.25;;;2.47;;
14686;SDS011;7431;49.440;11.084;2023-04-25T13:09:11;5.25;;;2.70;;
14686;SDS011;7431;49.440;11.084;2023-04-25T13:11:37;2.90;;;2.10;;
14686;SDS011;7431;49.440;11.084;2023-04-25T13:14:04;3.30;;;2.30;;
14686;SDS011;7431;49.440;11.084;2023-04-25T13:16:30;2.30;;;2.05;;
14686;SDS011;7431;49.440;11.084;2023-04-25T13:18:56;4.33;;;3.13;;
14686;SDS011;7431;49.440;11.084;2023-04-25T13:21:24;4.10;;;3.03;;
14686;SDS011;7431;49.440;11.084;2023-04-25T13:23:51;3.07;;;2.20;;
14686;SDS011;7431;49.440;11.084;2023-04-25T13:26:17;4.68;;;2.35;;
14686;SDS011;7431;49.440;11.084;2023-04-25T13:28:55;4.40;;;3.45;;
14686;SDS011;7431;49.440;11.084;2023-04-25T13:31:22;4.20;;;2.80;;
14686;SDS011;7431;49.440;11.084;2023-04-25T13:33:48;4.10;;;3.15;;
14686;SDS011;7431;49.440;11.084;2023-04-25T13:36:14;3.25;;;2.90;;
14686;SDS011;7431;49.440;11.084;2023-04-25T13:38:40;3.03;;;2.60;;
14686;SDS011;7431;49.440;11.084;2023-04-25T13:41:08;3.30;;;2.92;;
14686;SDS011;7431;49.440;11.084;2023-04-25T13:43:41;3.35;;;3.05;;
14686;SDS011;7431;49.440;11.084;2023-04-25T13:46:06;3.80;;;2.92;;
14686;SDS011;7431;49.440;11.084;2023-04-25T13:48:32;3.88;;;3.28;;
14686;SDS011;7431;49.440;11.084;2023-04-25T13:50:59;4.18;;;2.83;;
14686;SDS011;7431;49.440;11.084;2023-04-25T13:53:25;2.72;;;2.42;;
14686;SDS011;7431;49.440;11.084;2023-04-25T13:55:51;3.97;;;2.40;;
14686;SDS011;7431;49.440;11.084;2023-04-25T13:58:17;5.53;;;3.08;;
14686;SDS011;7431;49.440;11.084;2023-04-25T14:00:43;3.33;;;2.70;;
14686;SDS011;7431;49.440;11.084;2023-04-25T14:03:10;3.53;;;2.60;;
14686;SDS011;7431;49.440;11.084;2023-04-25T14:05:39;4.97;;;3.33;;
14686;SDS011;7431;49.440;11.084;2023-04-25T14:08:08;4.27;;;2.90;;
14686;SDS011;7431;49.440;11.084;2023-04-25T14:10:37;2.97;;;2.60;;
14686;SDS011;7431;49.440;11.084;2023-04-25T14:13:04;6.33;;;2.50;;
14686;SDS011;7431;49.440;11.084;2023-04-25T14:15:33;3.23;;;2.93;;
14686;SDS011;7431;49.440;11.084;2023-04-25T14:18:00;7.07;;;3.00;;
14686;SDS011;7431;49.440;11.084;2023-04-25T14:20:26;3.00;;;2.43;;
14686;SDS011;7431;49.440;11.084;2023-04-25T14:22:52;8.10;;;4.70;;
14686;SDS011;7431;49.440;11.084;2023-04-25T14:25:23;3.93;;;3.20;;
14686;SDS011;7431;49.440;11.084;2023-04-25T14:27:52;5.80;;;3.47;;
14686;SDS011;7431;49.440;11.084;2023-04-25T14:30:20;6.40;;;4.27;;
14686;SDS011;7431;49.440;11.084;2023-04-25T14:32:48;4.90;;;3.43;;
14686;SDS011;7431;49.440;11.084;2023-04-25T14:35:14;4.13;;;3.10;;
14686;SDS011;7431;49.440;11.084;2023-04-25T14:37:41;3.70;;;2.47;;
14686;SDS011;7431;49.440;11.084;2023-04-25T14:40:07;4.17;;;3.00;;
14686;SDS011;7431;49.440;11.084;2023-04-25T14:42:37;4.60;;;3.23;;
14686;SDS011;7431;49.440;11.084;2023-04-25T14:45:04;5.10;;;3.23;;
14686;SDS011;7431;49.440;11.084;2023-04-25T14:47:31;3.20;;;2.90;;
14686;SDS011;7431;49.440;11.084;2023-04-25T14:49:57;3.67;;;3.27;;
14686;SDS011;7431;49.440;11.084;2023-04-25T14:52:23;4.00;;;3.50;;